createdAt,value
2023-02-15T00:01:51.078Z,101120.66
2023-02-15T00:04:20.490Z,101128.66
2023-02-15T00:06:47.268Z,101119.16
2023-02-15T00:09:14.394Z,101121.03
2023-02-15T00:11:40.994Z,101119.41
2023-02-15T00:14:14.167Z,101116.09
2023-02-15T00:16:41.375Z,101114.38
2023-02-15T00:19:08.793Z,101110.88
2023-02-15T00:21:36.830Z,101108.47
2023-02-15T00:24:04.827Z,101106.91
2023-02-15T00:26:31.428Z,101106.25
2023-02-15T00:29:01.740Z,101101.16
2023-02-15T00:31:31.783Z,101102.22
2023-02-15T00:34:11.619Z,101098.09
2023-02-15T00:36:38.618Z,101094.66
2023-02-15T00:39:08.207Z,101095.66
2023-02-15T00:41:35.376Z,101096.66
2023-02-15T00:44:01.912Z,101096.75
2023-02-15T00:46:28.474Z,101085.44
2023-02-15T00:48:54.893Z,101086.34
2023-02-15T00:51:21.456Z,101077.66
2023-02-15T00:53:48.738Z,101080.38
2023-02-15T00:56:15.336Z,101076.91
2023-02-15T00:58:42.312Z,101076.06
2023-02-15T01:01:14.186Z,101083.13
2023-02-15T01:03:42.629Z,101079.56
2023-02-15T01:06:10.287Z,101083.94
2023-02-15T01:08:37.046Z,101082.25
2023-02-15T01:11:09.374Z,101091.06
2023-02-15T01:13:36.442Z,101085.00
2023-02-15T01:16:04.746Z,101077.25
2023-02-15T01:18:32.064Z,101071.16
2023-02-15T01:20:58.654Z,101068.59
2023-02-15T01:23:25.174Z,101060.78
2023-02-15T01:25:51.681Z,101060.78
2023-02-15T01:28:18.136Z,101055.53
2023-02-15T01:30:44.669Z,101059.00
2023-02-15T01:33:18.502Z,101044.06
2023-02-15T01:35:48.356Z,101048.44
2023-02-15T01:38:15.397Z,101037.94
2023-02-15T01:40:42.208Z,101043.16
2023-02-15T01:43:13.195Z,101037.94
2023-02-15T01:45:40.187Z,101037.88
2023-02-15T01:48:23.858Z,101033.56
2023-02-15T01:50:57.566Z,101030.06
2023-02-15T01:53:40.388Z,101017.88
2023-02-15T01:56:18.492Z,101019.53
2023-02-15T01:58:46.344Z,101017.78
2023-02-15T02:01:12.918Z,101016.03
2023-02-15T02:03:48.654Z,101017.03
2023-02-15T02:06:15.700Z,101023.19
2023-02-15T02:08:43.198Z,101020.66
2023-02-15T02:11:13.236Z,101008.63
2023-02-15T02:13:44.643Z,101004.41
2023-02-15T02:16:21.220Z,101009.78
2023-02-15T02:19:21.087Z,101002.25
2023-02-15T02:21:59.822Z,101003.25
2023-02-15T02:24:42.152Z,101012.16
2023-02-15T02:27:33.269Z,101010.50
2023-02-15T02:30:28.957Z,101010.59
2023-02-15T02:33:23.844Z,101006.28
2023-02-15T02:35:57.210Z,101014.31
2023-02-15T02:38:44.855Z,101007.41
2023-02-15T02:41:20.407Z,101012.72
2023-02-15T02:44:09.000Z,101006.75
2023-02-15T02:46:51.636Z,100999.88
2023-02-15T02:49:18.462Z,100996.38
2023-02-15T02:51:44.964Z,100998.22
2023-02-15T02:54:11.456Z,100993.00
2023-02-15T02:56:45.696Z,100989.56
2023-02-15T02:59:20.105Z,100989.63
2023-02-15T03:01:58.943Z,100993.09
2023-02-15T03:04:31.156Z,100984.31
2023-02-15T03:07:02.297Z,100983.50
2023-02-15T03:09:42.808Z,100981.75
2023-02-15T03:12:32.291Z,100985.38
2023-02-15T03:15:02.280Z,100982.78
2023-02-15T03:20:11.690Z,100974.25
2023-02-15T03:22:45.501Z,100981.34
2023-02-15T03:25:18.202Z,100966.47
2023-02-15T03:27:50.073Z,100971.75
2023-02-15T03:30:22.620Z,100971.81
2023-02-15T03:32:51.847Z,100968.34
2023-02-15T03:35:23.786Z,100967.50
2023-02-15T03:37:59.708Z,100969.34
2023-02-15T03:41:13.051Z,100970.31
2023-02-15T03:43:42.638Z,100965.91
2023-02-15T03:46:24.038Z,100964.25
2023-02-15T03:48:55.266Z,100968.59
2023-02-15T03:51:35.816Z,100959.03
2023-02-15T03:54:48.357Z,100952.94
2023-02-15T03:57:39.987Z,100959.03
2023-02-15T04:00:45.498Z,100965.22
2023-02-15T04:03:21.330Z,100956.47
2023-02-15T04:05:47.901Z,100958.28
2023-02-15T04:08:14.555Z,100956.66
2023-02-15T04:10:53.404Z,100956.78
2023-02-15T04:13:25.666Z,100956.97
2023-02-15T04:16:05.614Z,100963.13
2023-02-15T04:18:53.975Z,100950.13
2023-02-15T04:21:40.827Z,100951.97
2023-02-15T04:24:26.980Z,100946.81
2023-02-15T04:26:53.867Z,100952.97
2023-02-15T04:29:24.509Z,100953.94
2023-02-15T04:31:52.665Z,100951.38
2023-02-15T04:34:19.700Z,100949.69
2023-02-15T04:36:46.239Z,100954.94
2023-02-15T04:39:17.583Z,100948.88
2023-02-15T04:41:44.529Z,100958.47
2023-02-15T04:44:12.121Z,100958.53
2023-02-15T04:46:38.620Z,100957.66
2023-02-15T04:49:05.188Z,100948.97
2023-02-15T04:51:31.630Z,100949.88
2023-02-15T04:53:58.162Z,100949.88
2023-02-15T04:56:24.637Z,100944.69
2023-02-15T04:58:51.695Z,100943.03
2023-02-15T05:01:18.828Z,100944.00
2023-02-15T05:03:45.487Z,100944.09
2023-02-15T05:06:12.026Z,100938.00
2023-02-15T05:08:38.622Z,100927.59
2023-02-15T05:11:05.061Z,100927.59
2023-02-15T05:13:31.573Z,100926.72
2023-02-15T05:15:58.253Z,100932.78
2023-02-15T05:18:24.900Z,100925.75
2023-02-15T05:20:51.397Z,100930.09
2023-02-15T05:23:17.986Z,100924.84
2023-02-15T05:26:07.018Z,100924.03
2023-02-15T05:28:33.512Z,100927.53
2023-02-15T05:31:05.221Z,100922.47
2023-02-15T05:33:32.267Z,100912.06
2023-02-15T05:35:58.872Z,100913.00
2023-02-15T05:38:25.350Z,100906.94
2023-02-15T05:40:52.616Z,100908.72
2023-02-15T05:43:19.106Z,100901.78
2023-02-15T05:45:53.806Z,100903.56
2023-02-15T05:48:22.547Z,100901.78
2023-02-15T05:51:08.396Z,100898.38
2023-02-15T05:53:37.152Z,100896.59
2023-02-15T05:56:05.083Z,100902.72
2023-02-15T05:58:35.068Z,100896.66
2023-02-15T06:01:09.589Z,100898.47
2023-02-15T06:03:36.199Z,100893.25
2023-02-15T06:06:04.570Z,100892.41
2023-02-15T06:08:32.407Z,100892.53
2023-02-15T06:10:58.945Z,100899.56
2023-02-15T06:13:25.450Z,100904.91
2023-02-15T06:15:52.024Z,100896.28
2023-02-15T06:18:18.537Z,100892.00
2023-02-15T06:20:48.775Z,100897.31
2023-02-15T06:23:15.731Z,100899.09
2023-02-15T06:25:42.387Z,100898.25
2023-02-15T06:28:09.207Z,100898.28
2023-02-15T06:30:35.753Z,100903.53
2023-02-15T06:33:02.313Z,100906.16
2023-02-15T06:35:28.723Z,100907.03
2023-02-15T06:37:55.113Z,100909.66
2023-02-15T06:40:21.620Z,100904.41
2023-02-15T06:42:48.138Z,100907.91
2023-02-15T06:45:14.700Z,100902.63
2023-02-15T06:47:41.223Z,100906.06
2023-02-15T06:50:08.739Z,100903.44
2023-02-15T06:52:35.253Z,100912.09
2023-02-15T06:55:02.122Z,100907.75
2023-02-15T06:57:28.519Z,100901.59
2023-02-15T06:59:55.107Z,100899.91
2023-02-15T07:02:21.644Z,100900.75
2023-02-15T07:04:48.245Z,100897.31
2023-02-15T07:07:14.912Z,100902.56
2023-02-15T07:09:41.415Z,100898.22
2023-02-15T07:12:27.103Z,100898.25
2023-02-15T07:14:53.655Z,100901.78
2023-02-15T07:17:36.524Z,100902.69
2023-02-15T07:20:06.033Z,100902.75
2023-02-15T07:22:34.998Z,100908.88
2023-02-15T07:25:01.664Z,100900.22
2023-02-15T07:27:28.177Z,100901.16
2023-02-15T07:29:54.627Z,100884.63
2023-02-15T07:32:21.211Z,100891.59
2023-02-15T07:34:47.681Z,100888.97
2023-02-15T07:37:14.306Z,100878.50
2023-02-15T07:39:40.734Z,100874.13
2023-02-15T07:42:07.170Z,100874.13
2023-02-15T07:44:33.638Z,100861.06
2023-02-15T07:47:00.242Z,100863.63
2023-02-15T07:49:26.652Z,100858.38
2023-02-15T07:51:53.123Z,100862.72
2023-02-15T07:54:19.785Z,100867.91
2023-02-15T07:56:46.426Z,100867.06
2023-02-15T07:59:12.839Z,100858.31
2023-02-15T08:01:40.156Z,100864.31
2023-02-15T08:04:10.273Z,100854.75
2023-02-15T08:06:37.495Z,100853.81
2023-02-15T08:09:06.346Z,100850.25
2023-02-15T08:11:38.553Z,100853.72
2023-02-15T08:14:09.463Z,100857.09
2023-02-15T08:16:38.608Z,100851.81
2023-02-15T08:19:06.770Z,100860.41
2023-02-15T08:21:34.636Z,100857.69
2023-02-15T08:24:01.433Z,100854.13
2023-02-15T08:26:29.238Z,100847.94
2023-02-15T08:28:56.183Z,100847.84
2023-02-15T08:31:24.090Z,100852.13
2023-02-15T08:33:53.228Z,100844.22
2023-02-15T08:36:22.721Z,100836.28
2023-02-15T08:38:49.552Z,100838.00
2023-02-15T08:41:19.877Z,100827.47
2023-02-15T08:43:48.497Z,100830.06
2023-02-15T08:46:16.570Z,100831.72
2023-02-15T08:48:43.053Z,100826.44
2023-02-15T08:51:19.818Z,100817.63
2023-02-15T08:53:51.499Z,100828.06
2023-02-15T08:56:21.148Z,100815.75
2023-02-15T08:58:47.691Z,100811.34
2023-02-15T09:01:21.012Z,100803.47
2023-02-15T09:03:50.157Z,100811.22
2023-02-15T09:06:18.168Z,100807.66
2023-02-15T09:08:44.732Z,100808.44
2023-02-15T09:11:14.451Z,100810.06
2023-02-15T09:13:41.168Z,100812.56
2023-02-15T09:16:09.951Z,100805.47
2023-02-15T09:21:44.219Z,100806.91
2023-02-15T09:24:13.457Z,100806.72
2023-02-15T09:26:42.771Z,100799.59
2023-02-15T09:29:10.540Z,100805.50
2023-02-15T09:31:45.956Z,100800.06
2023-02-15T09:34:14.362Z,100805.91
2023-02-15T09:36:41.867Z,100803.09
2023-02-15T09:39:10.375Z,100800.34
2023-02-15T09:42:04.832Z,100806.25
2023-02-15T09:44:50.117Z,100806.81
2023-02-15T09:47:41.331Z,100812.78
2023-02-15T09:50:15.039Z,100800.34
2023-02-15T09:53:04.430Z,100800.94
2023-02-15T09:55:52.361Z,100805.06
2023-02-15T09:58:34.083Z,100803.00
2023-02-15T10:01:12.627Z,100807.03
2023-02-15T10:04:04.143Z,100800.75
2023-02-15T10:06:43.099Z,100798.72
2023-02-15T10:09:18.688Z,100809.00
2023-02-15T10:12:08.489Z,100807.91
2023-02-15T10:14:53.627Z,100810.25
2023-02-15T10:17:26.891Z,100818.63
2023-02-15T10:20:21.141Z,100818.41
2023-02-15T10:23:14.661Z,100822.47
2023-02-15T10:25:47.140Z,100814.19
2023-02-15T10:28:20.418Z,100815.56
2023-02-15T10:30:52.921Z,100813.56
2023-02-15T10:33:25.478Z,100807.16
2023-02-15T10:36:13.816Z,100806.97
2023-02-15T10:38:57.872Z,100805.78
2023-02-15T10:41:30.527Z,100801.91
2023-02-15T10:44:18.825Z,100813.88
2023-02-15T10:47:12.455Z,100808.22
2023-02-15T10:49:57.729Z,100807.72
2023-02-15T10:52:38.909Z,100814.38
2023-02-15T10:55:13.572Z,100819.28
2023-02-15T10:58:02.410Z,100815.34
2023-02-15T11:00:40.215Z,100814.84
2023-02-15T11:03:17.994Z,100809.03
2023-02-15T11:05:51.227Z,100809.44
2023-02-15T11:08:18.632Z,100802.63
2023-02-15T11:10:57.282Z,100793.34
2023-02-15T11:13:29.309Z,100793.47
2023-02-15T11:16:02.176Z,100790.19
2023-02-15T11:18:31.647Z,100790.34
2023-02-15T11:21:11.884Z,100788.47
2023-02-15T11:23:45.373Z,100795.03
2023-02-15T11:26:19.936Z,100786.97
2023-02-15T11:29:02.902Z,100781.97
2023-02-15T11:31:43.489Z,100768.88
2023-02-15T11:34:32.807Z,100769.03
2023-02-15T11:37:30.237Z,100770.56
2023-02-15T11:39:57.736Z,100761.31
2023-02-15T11:42:26.383Z,100756.09
2023-02-15T11:44:56.654Z,100769.31
2023-02-15T11:47:24.193Z,100754.00
2023-02-15T11:49:50.714Z,100755.94
2023-02-15T11:52:19.518Z,100763.72
2023-02-15T11:54:51.555Z,100763.97
2023-02-15T11:57:19.101Z,100767.06
2023-02-15T11:59:53.682Z,100759.72
2023-02-15T12:02:22.866Z,100752.81
2023-02-15T12:04:57.594Z,100750.16
2023-02-15T12:07:33.254Z,100737.69
2023-02-15T12:10:15.252Z,100740.63
2023-02-15T12:12:41.797Z,100736.66
2023-02-15T12:15:11.719Z,100736.25
2023-02-15T12:17:58.464Z,100722.34
2023-02-15T12:20:33.916Z,100720.81
2023-02-15T12:23:18.348Z,100717.03
2023-02-15T12:25:54.455Z,100719.81
2023-02-15T12:28:38.126Z,100709.13
2023-02-15T12:31:31.640Z,100722.59
2023-02-15T12:34:02.726Z,100713.91
2023-02-15T12:36:45.358Z,100706.13
2023-02-15T12:39:14.770Z,100709.09
2023-02-15T12:42:00.194Z,100699.59
2023-02-15T12:44:32.162Z,100695.31
2023-02-15T12:47:30.696Z,100690.69
2023-02-15T12:50:17.777Z,100693.44
2023-02-15T12:52:46.765Z,100692.84
2023-02-15T12:55:30.445Z,100690.94
2023-02-15T12:58:34.566Z,100692.22
2023-02-15T13:01:10.098Z,100688.91
2023-02-15T13:03:40.248Z,100682.75
2023-02-15T13:06:08.357Z,100685.88
2023-02-15T13:08:45.526Z,100686.72
2023-02-15T13:11:13.499Z,100678.97
2023-02-15T13:13:56.179Z,100677.91
2023-02-15T13:16:44.947Z,100677.75
2023-02-15T13:19:20.457Z,100678.63
2023-02-15T13:21:53.853Z,100676.94
2023-02-15T13:24:46.951Z,100674.88
2023-02-15T13:27:17.209Z,100670.78
2023-02-15T13:29:59.349Z,100676.91
2023-02-15T13:32:39.173Z,100666.00
2023-02-15T13:35:09.575Z,100663.94
2023-02-15T13:37:39.133Z,100657.53
2023-02-15T13:40:12.595Z,100649.50
2023-02-15T13:42:51.633Z,100641.97
2023-02-15T13:45:35.174Z,100647.28
2023-02-15T13:48:12.222Z,100646.31
2023-02-15T13:51:06.690Z,100647.66
2023-02-15T13:54:02.028Z,100648.75
2023-02-15T13:56:37.621Z,100643.25
2023-02-15T13:59:32.768Z,100641.78
2023-02-15T14:02:39.755Z,100635.78
2023-02-15T14:05:27.797Z,100636.16
2023-02-15T14:07:59.996Z,100627.56
2023-02-15T14:10:39.391Z,100636.44
2023-02-15T14:13:34.843Z,100635.72
2023-02-15T14:16:09.226Z,100634.84
2023-02-15T14:18:44.384Z,100632.91
2023-02-15T14:21:32.225Z,100627.56
2023-02-15T14:24:27.421Z,100626.81
2023-02-15T14:26:57.383Z,100626.50
2023-02-15T14:29:42.444Z,100618.94
2023-02-15T14:32:20.035Z,100615.81
2023-02-15T14:34:57.343Z,100609.84
2023-02-15T14:38:00.068Z,100597.44
2023-02-15T14:41:04.313Z,100600.75
2023-02-15T14:43:54.545Z,100597.69
2023-02-15T14:46:54.255Z,100592.34
2023-02-15T14:49:32.096Z,100593.47
2023-02-15T14:52:01.653Z,100593.47
2023-02-15T14:54:31.277Z,100594.31
2023-02-15T14:57:03.715Z,100591.31
2023-02-15T14:59:45.239Z,100596.34
2023-02-15T15:02:41.007Z,100588.97
2023-02-15T15:05:34.054Z,100598.59
2023-02-15T15:08:03.424Z,100586.69
2023-02-15T15:10:47.221Z,100583.16
2023-02-15T15:13:56.915Z,100587.69
2023-02-15T15:16:38.436Z,100592.66
2023-02-15T15:21:50.145Z,100591.31
2023-02-15T15:24:38.352Z,100582.94
2023-02-15T15:27:46.449Z,100575.34
2023-02-15T15:30:15.772Z,100583.56
2023-02-15T15:32:51.851Z,100583.00
2023-02-15T15:35:51.861Z,100584.41
2023-02-15T15:38:31.168Z,100576.66
2023-02-15T15:41:16.224Z,100581.31
2023-02-15T15:44:08.762Z,100571.94
2023-02-15T15:46:51.388Z,100575.41
2023-02-15T15:49:21.301Z,100574.84
2023-02-15T15:51:49.370Z,100573.47
2023-02-15T15:54:21.290Z,100580.97
2023-02-15T15:56:52.745Z,100575.06
2023-02-15T15:59:24.081Z,100575.13
2023-02-15T16:01:51.019Z,100562.72
2023-02-15T16:04:32.531Z,100561.19
2023-02-15T16:07:18.159Z,100559.38
2023-02-15T16:10:00.152Z,100562.84
2023-02-15T16:12:32.794Z,100566.03
2023-02-15T16:15:22.124Z,100562.41
2023-02-15T16:17:55.833Z,100542.91
2023-02-15T16:20:30.864Z,100554.19
2023-02-15T16:23:16.201Z,100546.28
2023-02-15T16:26:08.294Z,100546.88
2023-02-15T16:28:34.898Z,100551.53
2023-02-15T16:31:15.091Z,100557.44
2023-02-15T16:33:43.296Z,100560.41
2023-02-15T16:36:24.063Z,100552.13
2023-02-15T16:38:50.551Z,100557.78
2023-02-15T16:41:22.169Z,100562.63
2023-02-15T16:43:50.561Z,100566.44
2023-02-15T16:46:28.760Z,100558.94
2023-02-15T16:48:59.971Z,100558.22
2023-02-15T16:51:29.662Z,100558.50
2023-02-15T16:53:59.349Z,100557.88
2023-02-15T16:56:31.297Z,100561.56
2023-02-15T16:58:59.601Z,100555.56
2023-02-15T17:01:30.804Z,100558.47
2023-02-15T17:04:13.776Z,100557.06
2023-02-15T17:06:40.336Z,100562.28
2023-02-15T17:09:19.405Z,100567.97
2023-02-15T17:11:46.061Z,100560.13
2023-02-15T17:14:21.905Z,100565.69
2023-02-15T17:17:16.232Z,100566.78
2023-02-15T17:19:50.562Z,100566.09
2023-02-15T17:22:27.735Z,100570.69
2023-02-15T17:25:02.380Z,100569.91
2023-02-15T17:27:32.753Z,100563.78
2023-02-15T17:30:13.709Z,100564.69
2023-02-15T17:32:54.436Z,100569.22
2023-02-15T17:35:25.725Z,100569.06
2023-02-15T17:38:02.828Z,100571.00
2023-02-15T17:40:32.078Z,100569.22
2023-02-15T17:42:58.811Z,100565.72
2023-02-15T17:45:34.796Z,100568.66
2023-02-15T17:48:04.394Z,100567.81
2023-02-15T17:50:34.240Z,100562.69
2023-02-15T17:53:02.135Z,100558.25
2023-02-15T17:55:41.164Z,100550.50
2023-02-15T17:58:10.642Z,100547.84
2023-02-15T18:01:00.515Z,100548.03
2023-02-15T18:03:57.168Z,100550.72
2023-02-15T18:06:42.014Z,100550.72
2023-02-15T18:09:35.119Z,100555.19
2023-02-15T18:12:02.127Z,100563.97
2023-02-15T18:14:28.825Z,100561.41
2023-02-15T18:16:55.870Z,100566.69
2023-02-15T18:19:26.007Z,100570.25
2023-02-15T18:21:53.468Z,100571.09
2023-02-15T18:24:24.593Z,100578.09
2023-02-15T18:26:52.502Z,100569.19
2023-02-15T18:29:19.506Z,100570.84
2023-02-15T18:31:51.350Z,100574.34
2023-02-15T18:34:22.977Z,100568.88
2023-02-15T18:36:49.833Z,100581.88
2023-02-15T18:39:40.147Z,100572.25
2023-02-15T18:42:18.446Z,100569.28
2023-02-15T18:44:45.007Z,100565.56
2023-02-15T18:47:11.448Z,100561.91
2023-02-15T18:49:37.942Z,100562.69
2023-02-15T18:52:04.556Z,100566.16
2023-02-15T18:54:31.228Z,100574.88
2023-02-15T18:57:01.107Z,100569.59
2023-02-15T18:59:28.439Z,100568.66
2023-02-15T19:01:55.603Z,100567.88
2023-02-15T19:04:24.215Z,100571.44
2023-02-15T19:06:52.251Z,100575.91
2023-02-15T19:09:22.942Z,100568.97
2023-02-15T19:11:52.134Z,100569.91
2023-02-15T19:14:30.497Z,100573.63
2023-02-15T19:16:59.551Z,100573.47
2023-02-15T19:19:27.079Z,100580.53
2023-02-15T19:21:54.188Z,100576.13
2023-02-15T19:24:39.058Z,100572.88
2023-02-15T19:27:08.190Z,100584.09
2023-02-15T19:29:34.712Z,100590.41
2023-02-15T19:32:01.346Z,100593.13
2023-02-15T19:34:27.910Z,100584.50
2023-02-15T19:36:56.576Z,100592.50
2023-02-15T19:39:42.412Z,100591.00
2023-02-15T19:42:15.165Z,100592.81
2023-02-15T19:44:43.630Z,100586.59
2023-02-15T19:47:13.462Z,100588.47
2023-02-15T19:49:41.367Z,100579.72
2023-02-15T19:52:25.746Z,100579.88
2023-02-15T19:54:54.737Z,100570.00
2023-02-15T19:57:21.684Z,100581.41
2023-02-15T19:59:48.535Z,100580.53
2023-02-15T20:02:18.010Z,100581.44
2023-02-15T20:04:45.520Z,100584.06
2023-02-15T20:07:27.120Z,100582.50
2023-02-15T20:09:53.774Z,100584.22
2023-02-15T20:12:25.464Z,100584.47
2023-02-15T20:14:53.191Z,100583.59
2023-02-15T20:17:19.963Z,100582.91
2023-02-15T20:19:46.475Z,100586.63
2023-02-15T20:22:25.372Z,100584.28
2023-02-15T20:24:55.516Z,100582.50
2023-02-15T20:27:22.603Z,100586.16
2023-02-15T20:29:50.549Z,100573.03
2023-02-15T20:32:17.230Z,100577.44
2023-02-15T20:34:43.931Z,100573.16
2023-02-15T20:37:24.148Z,100576.03
2023-02-15T20:39:51.504Z,100575.09
2023-02-15T20:42:19.016Z,100577.88
2023-02-15T20:44:45.680Z,100583.22
2023-02-15T20:47:12.368Z,100591.25
2023-02-15T20:49:38.818Z,100589.50
2023-02-15T20:52:18.750Z,100605.56
2023-02-15T20:54:45.310Z,100604.56
2023-02-15T20:57:12.362Z,100605.56
2023-02-15T20:59:40.685Z,100609.97
2023-02-15T21:02:23.466Z,100612.00
2023-02-15T21:04:50.413Z,100615.38
2023-02-15T21:07:21.650Z,100613.84
2023-02-15T21:09:48.573Z,100609.56
2023-02-15T21:12:17.058Z,100603.59
2023-02-15T21:14:44.898Z,100609.09
2023-02-15T21:17:13.273Z,100614.50
2023-02-15T21:22:15.360Z,100613.19
2023-02-15T21:24:50.796Z,100609.84
2023-02-15T21:27:17.643Z,100603.72
2023-02-15T21:29:44.060Z,100602.94
2023-02-15T21:32:10.931Z,100599.59
2023-02-15T21:34:37.632Z,100600.59
2023-02-15T21:37:05.030Z,100601.56
2023-02-15T21:39:35.648Z,100606.13
2023-02-15T21:42:20.829Z,100601.00
2023-02-15T21:45:05.667Z,100596.78
2023-02-15T21:47:50.572Z,100595.25
2023-02-15T21:50:41.587Z,100597.28
2023-02-15T21:53:13.126Z,100586.91
2023-02-15T21:55:39.682Z,100588.72
2023-02-15T21:58:06.252Z,100588.97
2023-02-15T22:00:33.936Z,100578.63
2023-02-15T22:03:01.715Z,100577.09
2023-02-15T22:05:33.595Z,100575.63
2023-02-15T22:08:00.860Z,100569.56
2023-02-15T22:10:32.309Z,100576.94
2023-02-15T22:13:02.633Z,100571.03
2023-02-15T22:15:37.191Z,100572.16
2023-02-15T22:18:04.934Z,100567.13
2023-02-15T22:20:31.626Z,100573.44
2023-02-15T22:22:58.029Z,100577.19
2023-02-15T22:25:26.230Z,100569.63
2023-02-15T22:27:54.548Z,100573.34
2023-02-15T22:30:32.950Z,100566.50
2023-02-15T22:33:00.489Z,100569.47
2023-02-15T22:35:29.835Z,100570.50
2023-02-15T22:37:56.916Z,100568.94
2023-02-15T22:40:29.566Z,100569.09
2023-02-15T22:42:58.055Z,100571.00
2023-02-15T22:45:27.993Z,100566.75
2023-02-15T22:47:58.260Z,100565.16
2023-02-15T22:50:30.356Z,100571.44
2023-02-15T22:52:57.059Z,100565.25
2023-02-15T22:55:25.198Z,100567.19
2023-02-15T22:57:54.615Z,100566.38
2023-02-15T23:00:28.581Z,100560.38
2023-02-15T23:02:55.637Z,100556.88
2023-02-15T23:05:31.254Z,100557.97
2023-02-15T23:07:58.033Z,100558.91
2023-02-15T23:10:26.510Z,100561.66
2023-02-15T23:13:17.125Z,100554.03
2023-02-15T23:15:51.602Z,100555.88
2023-02-15T23:18:31.317Z,100562.28
2023-02-15T23:20:59.049Z,100557.94
2023-02-15T23:23:41.769Z,100550.28
2023-02-15T23:26:17.572Z,100551.22
2023-02-15T23:28:44.784Z,100545.09
2023-02-15T23:31:42.538Z,100552.34
2023-02-15T23:34:19.375Z,100550.66
2023-02-15T23:36:45.815Z,100552.34
2023-02-15T23:39:39.236Z,100541.16
2023-02-15T23:42:12.316Z,100544.72
2023-02-15T23:44:39.273Z,100550.84
2023-02-15T23:47:17.301Z,100545.50
2023-02-15T23:49:43.772Z,100544.78
2023-02-15T23:52:11.322Z,100552.72
2023-02-15T23:54:37.810Z,100550.06
2023-02-15T23:57:04.465Z,100557.19
2023-02-15T23:59:32.325Z,100550.28
